createdAt,value
2018-06-27T00:07:23.248Z,3.37
2018-06-27T00:17:17.664Z,3.37
2018-06-27T00:27:13.629Z,3.37
2018-06-27T00:37:11.659Z,3.37
2018-06-27T00:47:09.068Z,3.37
2018-06-27T00:57:04.676Z,3.37
2018-06-27T01:07:03.015Z,3.37
2018-06-27T01:17:01.292Z,3.37
2018-06-27T01:26:55.324Z,3.37
2018-06-27T01:36:52.985Z,3.37
2018-06-27T01:46:51.832Z,3.36
2018-06-27T01:56:48.900Z,3.36
2018-06-27T02:06:46.106Z,3.36
2018-06-27T02:16:43.287Z,3.36
2018-06-27T02:26:41.071Z,3.36
2018-06-27T02:36:37.778Z,3.36
2018-06-27T02:46:37.112Z,3.36
2018-06-27T02:56:36.050Z,3.36
2018-06-27T03:06:32.329Z,3.36
2018-06-27T03:16:28.983Z,3.36
2018-06-27T03:26:25.470Z,3.35
2018-06-27T03:36:24.444Z,3.36
2018-06-27T03:46:21.528Z,3.36
2018-06-27T03:56:18.061Z,3.36
2018-06-27T04:06:16.681Z,3.36
2018-06-27T04:16:12.939Z,3.36
2018-06-27T04:26:09.479Z,3.37
2018-06-27T04:36:07.489Z,3.37
2018-06-27T04:46:02.852Z,3.38
2018-06-27T04:55:59.752Z,3.38
2018-06-27T05:05:55.838Z,3.39
2018-06-27T05:15:52.899Z,3.39
2018-06-27T05:25:46.797Z,3.39
2018-06-27T05:35:43.665Z,3.40
2018-06-27T05:45:41.900Z,3.40
2018-06-27T05:55:39.171Z,3.40
2018-06-27T06:05:37.367Z,3.40
2018-06-27T06:15:17.050Z,3.40
2018-06-27T06:25:15.622Z,3.40
2018-06-27T06:35:11.670Z,3.42
2018-06-27T06:45:08.398Z,3.43
2018-06-27T06:55:05.562Z,3.44
2018-06-27T07:05:03.067Z,3.42
2018-06-27T07:14:57.455Z,3.42
2018-06-27T07:24:55.904Z,3.41
2018-06-27T07:34:53.035Z,3.42
2018-06-27T07:44:51.695Z,3.42
2018-06-27T07:54:49.319Z,3.42
2018-06-27T08:04:45.937Z,3.42
2018-06-27T08:14:42.312Z,3.43
2018-06-27T08:24:41.634Z,3.42
2018-06-27T08:34:40.073Z,3.42
2018-06-27T08:44:37.438Z,3.42
2018-06-27T08:54:36.821Z,3.42
2018-06-27T09:04:33.308Z,3.42
2018-06-27T09:14:29.999Z,3.42
2018-06-27T09:24:27.911Z,3.43
2018-06-27T09:34:24.855Z,3.42
2018-06-27T09:44:21.870Z,3.42
2018-06-27T09:54:20.200Z,3.43
2018-06-27T10:04:18.247Z,3.42
2018-06-27T10:14:17.258Z,3.42
2018-06-27T10:24:13.160Z,3.42
2018-06-27T10:34:10.994Z,3.42
2018-06-27T10:44:08.407Z,3.42
2018-06-27T10:54:03.428Z,3.42
2018-06-27T11:04:00.324Z,3.42
2018-06-27T11:13:58.168Z,3.42
2018-06-27T11:23:57.109Z,3.42
2018-06-27T11:33:52.551Z,3.42
2018-06-27T11:43:50.850Z,3.42
2018-06-27T11:53:48.508Z,3.42
2018-06-27T12:03:31.129Z,3.41
2018-06-27T12:13:27.094Z,3.42
2018-06-27T12:23:26.564Z,3.42
2018-06-27T12:33:20.536Z,3.42
2018-06-27T12:43:05.233Z,3.42
2018-06-27T12:52:40.035Z,3.42
2018-06-27T13:02:11.715Z,3.42
2018-06-27T13:11:50.109Z,3.42
2018-06-27T13:21:29.147Z,3.42
2018-06-27T13:31:01.700Z,3.42
2018-06-27T13:40:35.787Z,3.42
2018-06-27T13:50:31.369Z,3.42
2018-06-27T14:00:10.024Z,3.42
2018-06-27T14:09:49.525Z,3.42
2018-06-27T14:19:23.859Z,3.42
2018-06-27T14:29:17.659Z,3.42
2018-06-27T14:39:15.706Z,3.41
2018-06-27T14:48:52.045Z,3.42
2018-06-27T14:58:35.645Z,3.42
2018-06-27T15:08:12.500Z,3.42
2018-06-27T15:17:46.266Z,3.41
2018-06-27T15:27:40.561Z,3.42
2018-06-27T15:37:33.691Z,3.43
2018-06-27T15:47:29.267Z,3.43
2018-06-27T15:57:26.043Z,3.42
2018-06-27T16:07:20.288Z,3.42
2018-06-27T16:17:17.221Z,3.42
2018-06-27T16:27:12.954Z,3.42
2018-06-27T16:37:09.501Z,3.42
2018-06-27T16:47:04.955Z,3.42
2018-06-27T16:57:03.014Z,3.43
2018-06-27T17:06:59.134Z,3.43
2018-06-27T17:16:51.539Z,3.44
2018-06-27T17:26:46.644Z,3.44
2018-06-27T17:36:42.341Z,3.45
2018-06-27T17:46:39.685Z,3.44
2018-06-27T17:56:25.809Z,3.43
2018-06-27T18:06:20.996Z,3.43
2018-06-27T18:16:16.406Z,3.42
2018-06-27T18:26:13.769Z,3.43
2018-06-27T18:36:10.919Z,3.42
2018-06-27T18:46:07.497Z,3.42
2018-06-27T18:56:02.046Z,3.42
2018-06-27T19:05:59.248Z,3.42
2018-06-27T19:15:41.491Z,3.42
2018-06-27T19:25:32.779Z,3.41
2018-06-27T19:35:30.588Z,3.41
2018-06-27T19:45:29.683Z,3.41
2018-06-27T19:55:27.012Z,3.41
2018-06-27T20:05:22.709Z,3.41
2018-06-27T20:15:17.299Z,3.40
2018-06-27T20:25:13.807Z,3.40
2018-06-27T20:35:10.071Z,3.40
2018-06-27T20:45:08.064Z,3.40
2018-06-27T20:55:04.772Z,3.40
2018-06-27T21:05:02.746Z,3.40
2018-06-27T21:14:58.671Z,3.40
2018-06-27T21:24:56.967Z,3.40
2018-06-27T21:34:53.733Z,3.39
2018-06-27T21:44:46.857Z,3.39
2018-06-27T21:54:46.064Z,3.39
2018-06-27T22:04:43.881Z,3.39
2018-06-27T22:14:38.500Z,3.39
2018-06-27T22:24:36.284Z,3.39
2018-06-27T22:34:32.132Z,3.39
2018-06-27T22:44:28.696Z,3.39
2018-06-27T22:54:27.119Z,3.39
2018-06-27T23:04:23.084Z,3.39
2018-06-27T23:14:21.276Z,3.39
2018-06-27T23:24:15.539Z,3.39
2018-06-27T23:34:13.969Z,3.39
2018-06-27T23:44:12.011Z,3.39
2018-06-27T23:54:06.094Z,3.39
